Time;durP1;ratioP1;P1;durP2;ratioP2;P2;SDS_P1;SDS_P2;PMS_P1;PMS_P2;Temp;Humidity;BMP_temperature;BMP_pressure;BME280_temperature;BME280_humidity;BME280_pressure;Samples;Min_cycle;Max_cycle;Signal;HPM_P1;HPM_P2
2021/12/22 00:00:49;;;;;;;;;;;18.90;31.60;;;;;;5096571;28;19912;-62
2021/12/22 00:03:15;;;;;;;;;;;18.90;31.50;;;;;;5096426;28;19915;-62
2021/12/22 00:05:45;;;;;;;;;;;18.90;31.50;;;;;;5078302;28;20148;-62
2021/12/22 00:08:12;;;;;;;;;;;18.90;31.40;;;;;;5096410;28;19912;-62
2021/12/22 00:10:38;;;;;;;;;;;18.90;31.40;;;;;;5078092;28;19931;-62
2021/12/22 00:13:04;;;;;;;;;;;18.80;31.50;;;;;;5096592;28;20364;-62
2021/12/22 00:15:30;;;;;;;;;;;18.80;31.50;;;;;;5096254;28;20352;-62
2021/12/22 00:17:55;;;;;;;;;;;18.80;31.40;;;;;;5096170;28;20264;-62
2021/12/22 00:20:20;;;;;;;;;;;18.80;31.50;;;;;;5096207;28;19971;-62
2021/12/22 00:22:46;;;;;;;;;;;18.80;31.50;;;;;;5096114;28;20334;-62
2021/12/22 00:25:12;;;;;;;;;;;18.80;31.50;;;;;;5096258;28;19914;-62
2021/12/22 00:27:37;;;;;;;;;;;18.80;31.40;;;;;;5096139;28;19915;-62
2021/12/22 00:30:04;;;;;;;;;;;18.80;31.50;;;;;;5096095;28;20343;-62
2021/12/22 00:32:31;;;;;;;;;;;18.80;31.50;;;;;;5095984;28;20364;-62
2021/12/22 00:34:57;;;;;;;;;;;18.70;31.50;;;;;;5096185;28;19909;-62
2021/12/22 00:37:23;;;;;;;;;;;18.80;31.30;;;;;;5077529;28;19927;-62
2021/12/22 00:39:50;;;;;;;;;;;18.80;31.50;;;;;;5095803;28;20386;-62
2021/12/22 00:42:16;;;;;;;;;;;18.70;31.30;;;;;;5095848;28;20003;-62
2021/12/22 00:44:42;;;;;;;;;;;18.70;31.30;;;;;;5077527;28;20432;-62
2021/12/22 00:47:07;;;;;;;;;;;18.70;31.50;;;;;;5095652;28;20003;-62
2021/12/22 00:49:33;;;;;;;;;;;18.70;31.50;;;;;;5095544;28;19940;-62
2021/12/22 00:51:58;;;;;;;;;;;18.70;31.40;;;;;;5077365;28;19908;-62
2021/12/22 00:54:24;;;;;;;;;;;18.70;31.40;;;;;;5077169;28;19970;-62
2021/12/22 00:56:49;;;;;;;;;;;18.60;31.40;;;;;;5095163;28;19924;-62
2021/12/22 00:59:18;;;;;;;;;;;18.60;31.40;;;;;;5095375;28;19908;-63
2021/12/22 01:01:44;;;;;;;;;;;18.60;31.50;;;;;;5095502;28;19912;-62
2021/12/22 01:04:10;;;;;;;;;;;18.60;31.40;;;;;;5077096;28;19985;-62
2021/12/22 01:06:36;;;;;;;;;;;18.60;31.20;;;;;;5095230;28;20364;-62
2021/12/22 01:09:02;;;;;;;;;;;18.60;31.40;;;;;;5095294;28;19908;-62
2021/12/22 01:11:28;;;;;;;;;;;18.60;31.40;;;;;;5095177;28;19909;-62
2021/12/22 01:13:54;;;;;;;;;;;18.60;31.40;;;;;;5095068;28;20374;-62
2021/12/22 01:16:20;;;;;;;;;;;18.60;31.30;;;;;;5094862;28;19930;-62
2021/12/22 01:18:45;;;;;;;;;;;18.60;31.30;;;;;;5094828;28;20421;-61
2021/12/22 01:21:24;;;;;;;;;;;18.50;31.40;;;;;;5094865;28;19912;-62
2021/12/22 01:26:34;;;;;;;;;;;18.50;31.10;;;;;;5095105;28;19915;-62
2021/12/22 01:29:00;;;;;;;;;;;18.50;31.30;;;;;;5095021;28;19908;-62
2021/12/22 01:31:26;;;;;;;;;;;18.50;31.40;;;;;;5094678;28;19955;-62
2021/12/22 01:33:51;;;;;;;;;;;18.50;31.20;;;;;;5094787;28;19910;-63
2021/12/22 01:36:17;;;;;;;;;;;18.50;31.30;;;;;;5094582;28;19977;-63
2021/12/22 01:38:43;;;;;;;;;;;18.50;31.20;;;;;;5094795;28;19974;-63
2021/12/22 01:41:08;;;;;;;;;;;18.50;31.20;;;;;;5094789;28;20408;-62
2021/12/22 01:43:34;;;;;;;;;;;18.50;31.30;;;;;;5094641;28;19999;-62
2021/12/22 01:51:49;;;;;;;;;;;18.50;31.40;;;;;;5094365;28;19919;-62
2021/12/22 01:54:21;;;;;;;;;;;18.50;31.30;;;;;;5094365;28;19929;-62
2021/12/22 01:56:47;;;;;;;;;;;18.40;31.20;;;;;;5072670;28;20275;-63
2021/12/22 01:59:13;;;;;;;;;;;18.40;31.20;;;;;;5073937;28;19909;-62
2021/12/22 02:01:38;;;;;;;;;;;18.40;31.20;;;;;;5073883;28;19915;-62
2021/12/22 02:04:06;;;;;;;;;;;18.40;31.20;;;;;;5073769;28;19909;-63
2021/12/22 02:06:31;;;;;;;;;;;18.40;31.20;;;;;;5073540;28;19909;-61
2021/12/22 02:08:58;;;;;;;;;;;18.40;31.10;;;;;;5073760;28;19914;-62
2021/12/22 02:11:24;;;;;;;;;;;18.40;31.10;;;;;;5073714;28;19912;-62
2021/12/22 02:13:57;;;;;;;;;;;18.40;31.30;;;;;;5073694;28;19962;-63
2021/12/22 02:16:27;;;;;;;;;;;18.40;31.20;;;;;;5073614;28;20332;-63
2021/12/22 02:18:54;;;;;;;;;;;18.40;31.30;;;;;;5073900;28;19974;-63
2021/12/22 02:21:21;;;;;;;;;;;18.30;31.20;;;;;;5073890;28;19970;-63
2021/12/22 02:23:46;;;;;;;;;;;18.30;31.10;;;;;;5073783;28;19962;-63
2021/12/22 02:26:20;;;;;;;;;;;18.30;31.10;;;;;;5073522;28;19908;-63
2021/12/22 02:28:53;;;;;;;;;;;18.30;31.20;;;;;;5073450;28;19909;-63
2021/12/22 02:31:20;;;;;;;;;;;18.30;31.00;;;;;;5073718;28;19916;-63
2021/12/22 02:33:48;;;;;;;;;;;18.30;31.10;;;;;;5073370;28;19915;-63
2021/12/22 02:38:43;;;;;;;;;;;18.30;31.00;;;;;;5073316;28;19926;-62
2021/12/22 02:41:11;;;;;;;;;;;18.30;31.10;;;;;;5073433;28;19908;-63
2021/12/22 02:43:45;;;;;;;;;;;18.20;31.10;;;;;;5073274;28;19962;-62
2021/12/22 02:46:11;;;;;;;;;;;18.20;31.00;;;;;;5073520;28;19913;-63
2021/12/22 02:48:36;;;;;;;;;;;18.20;31.00;;;;;;5073394;28;19962;-62
2021/12/22 02:51:02;;;;;;;;;;;18.20;30.90;;;;;;5073240;28;20368;-63
2021/12/22 02:53:42;;;;;;;;;;;18.20;30.90;;;;;;5073321;28;19934;-63
2021/12/22 03:04:11;;;;;;;;;;;18.20;31.00;;;;;;5073544;28;19915;-62
2021/12/22 03:06:44;;;;;;;;;;;18.10;31.10;;;;;;5073013;28;19908;-64
2021/12/22 03:09:16;;;;;;;;;;;18.10;30.90;;;;;;5073360;28;19962;-62
2021/12/22 03:11:41;;;;;;;;;;;18.10;30.90;;;;;;5073048;28;19913;-62
2021/12/22 03:14:06;;;;;;;;;;;18.10;30.90;;;;;;5073094;28;19915;-62
2021/12/22 03:16:32;;;;;;;;;;;18.10;30.90;;;;;;5105565;28;19974;-63
2021/12/22 03:18:57;;;;;;;;;;;18.10;30.90;;;;;;5074396;28;20340;-62
2021/12/22 03:21:23;;;;;;;;;;;18.10;30.90;;;;;;5076951;28;19948;-62
2021/12/22 03:23:50;;;;;;;;;;;18.10;30.90;;;;;;5077224;28;19908;-62
2021/12/22 03:26:17;;;;;;;;;;;18.10;30.90;;;;;;5077352;28;19916;-63
2021/12/22 03:28:44;;;;;;;;;;;18.10;30.90;;;;;;5077052;28;20279;-62
2021/12/22 03:31:09;;;;;;;;;;;18.10;30.90;;;;;;5077280;28;19916;-62
2021/12/22 03:33:35;;;;;;;;;;;18.10;30.90;;;;;;5076833;28;19909;-62
2021/12/22 03:36:00;;;;;;;;;;;18.10;31.00;;;;;;5076932;28;19913;-62
2021/12/22 03:38:26;;;;;;;;;;;18.00;30.80;;;;;;5076877;28;20248;-62
2021/12/22 03:40:51;;;;;;;;;;;18.00;30.90;;;;;;5076770;28;19931;-62
2021/12/22 03:43:17;;;;;;;;;;;18.00;30.80;;;;;;5076767;28;19915;-62
2021/12/22 03:45:42;;;;;;;;;;;18.00;30.70;;;;;;5076668;28;19909;-62
2021/12/22 03:48:08;;;;;;;;;;;18.00;30.80;;;;;;5076347;28;20421;-62
2021/12/22 03:50:33;;;;;;;;;;;18.00;30.90;;;;;;5076787;28;20321;-62
2021/12/22 03:52:59;;;;;;;;;;;18.00;30.80;;;;;;5076571;28;19915;-62
2021/12/22 03:55:24;;;;;;;;;;;18.00;30.90;;;;;;5076517;28;20003;-62
2021/12/22 03:57:50;;;;;;;;;;;18.00;30.80;;;;;;5090008;28;20479;-63
2021/12/22 04:00:16;;;;;;;;;;;18.00;30.80;;;;;;5096673;28;19936;-62
2021/12/22 04:02:41;;;;;;;;;;;18.00;30.80;;;;;;5096612;28;19908;-63
2021/12/22 04:05:07;;;;;;;;;;;18.00;30.80;;;;;;5096685;28;19908;-63
2021/12/22 04:07:33;;;;;;;;;;;18.00;30.70;;;;;;5096584;28;20291;-62
2021/12/22 04:09:58;;;;;;;;;;;18.00;30.70;;;;;;5096639;28;20260;-62
2021/12/22 04:12:24;;;;;;;;;;;18.00;30.80;;;;;;5096628;28;19923;-62
2021/12/22 04:14:49;;;;;;;;;;;18.00;30.80;;;;;;5096543;28;20508;-62
2021/12/22 04:17:15;;;;;;;;;;;18.00;30.80;;;;;;5096216;28;19912;-63
2021/12/22 04:19:40;;;;;;;;;;;18.00;30.70;;;;;;5096365;28;19912;-63
2021/12/22 04:22:06;;;;;;;;;;;18.00;30.80;;;;;;5096339;28;20264;-62
2021/12/22 04:24:32;;;;;;;;;;;17.90;30.70;;;;;;5096199;28;19930;-62
2021/12/22 04:26:57;;;;;;;;;;;18.00;30.80;;;;;;5096226;28;20359;-62
2021/12/22 04:29:23;;;;;;;;;;;18.00;30.70;;;;;;5095785;28;20341;-63
2021/12/22 04:31:48;;;;;;;;;;;18.00;30.70;;;;;;5096349;28;20413;-63
2021/12/22 04:34:14;;;;;;;;;;;17.90;30.80;;;;;;5096089;28;19911;-63
2021/12/22 04:36:40;;;;;;;;;;;17.90;30.70;;;;;;5095984;28;19908;-63
2021/12/22 04:39:06;;;;;;;;;;;17.90;30.80;;;;;;5096162;28;20322;-63
2021/12/22 04:41:32;;;;;;;;;;;17.90;30.70;;;;;;5095904;28;19912;-61
2021/12/22 04:43:58;;;;;;;;;;;17.90;30.70;;;;;;5095880;28;19908;-63
2021/12/22 04:46:23;;;;;;;;;;;17.90;30.80;;;;;;5095829;28;19908;-62
2021/12/22 04:48:49;;;;;;;;;;;17.90;30.70;;;;;;5095816;28;20003;-63
2021/12/22 04:51:24;;;;;;;;;;;17.90;30.80;;;;;;5095946;28;19908;-63
2021/12/22 04:53:56;;;;;;;;;;;17.90;30.80;;;;;;5095644;28;20356;-62
2021/12/22 04:56:21;;;;;;;;;;;17.90;30.80;;;;;;5095567;28;19919;-62
2021/12/22 04:58:47;;;;;;;;;;;17.80;30.80;;;;;;5095515;28;19916;-62
2021/12/22 05:01:12;;;;;;;;;;;17.90;30.70;;;;;;5095389;28;19993;-62
2021/12/22 05:03:39;;;;;;;;;;;17.80;30.60;;;;;;5095414;28;19962;-62
2021/12/22 05:06:04;;;;;;;;;;;17.80;30.70;;;;;;5095631;28;19915;-62
2021/12/22 05:08:30;;;;;;;;;;;17.80;30.80;;;;;;5095336;28;19912;-62
2021/12/22 05:10:55;;;;;;;;;;;17.90;30.70;;;;;;5095248;28;19908;-62
2021/12/22 05:13:21;;;;;;;;;;;17.80;30.70;;;;;;5095257;28;19950;-62
2021/12/22 05:15:46;;;;;;;;;;;17.90;30.70;;;;;;5095165;28;20348;-62
2021/12/22 05:18:36;;;;;;;;;;;17.90;30.80;;;;;;5094955;28;19939;-63
2021/12/22 05:21:02;;;;;;;;;;;17.90;30.60;;;;;;5095193;28;19908;-62
2021/12/22 05:23:27;;;;;;;;;;;17.90;30.70;;;;;;5095132;28;19912;-62
2021/12/22 05:25:53;;;;;;;;;;;17.90;30.50;;;;;;5095084;28;20354;-62
2021/12/22 05:28:18;;;;;;;;;;;17.90;30.70;;;;;;5094926;28;19930;-62
2021/12/22 05:30:46;;;;;;;;;;;18.00;30.70;;;;;;5094907;28;19908;-62
2021/12/22 05:33:12;;;;;;;;;;;18.00;30.60;;;;;;5094864;28;20318;-62
2021/12/22 05:35:37;;;;;;;;;;;18.00;30.70;;;;;;5094830;28;19938;-62
2021/12/22 05:38:02;;;;;;;;;;;18.00;30.60;;;;;;5094716;28;19916;-61
2021/12/22 05:40:28;;;;;;;;;;;18.00;30.60;;;;;;5094550;28;19931;-62
2021/12/22 05:42:54;;;;;;;;;;;18.00;30.60;;;;;;5094225;28;19915;-62
2021/12/22 05:45:23;;;;;;;;;;;18.10;30.70;;;;;;5094792;28;20271;-62
2021/12/22 05:47:50;;;;;;;;;;;18.10;30.60;;;;;;5094628;28;19915;-62
2021/12/22 05:50:19;;;;;;;;;;;18.10;30.50;;;;;;5094598;28;19950;-62
2021/12/22 05:52:44;;;;;;;;;;;18.10;30.60;;;;;;5094750;28;19950;-62
2021/12/22 05:55:10;;;;;;;;;;;18.10;30.70;;;;;;5094389;28;19908;-62
2021/12/22 05:57:35;;;;;;;;;;;18.10;30.50;;;;;;5075830;28;20502;-62
2021/12/22 06:00:01;;;;;;;;;;;18.20;30.50;;;;;;5094308;28;19912;-62
2021/12/22 06:02:26;;;;;;;;;;;18.10;30.50;;;;;;5076073;28;19952;-62
2021/12/22 06:04:51;;;;;;;;;;;18.20;30.50;;;;;;5094222;28;19998;-62
2021/12/22 06:07:17;;;;;;;;;;;18.20;30.60;;;;;;5094164;28;19915;-62
2021/12/22 06:09:42;;;;;;;;;;;18.20;30.50;;;;;;5094477;28;20360;-62
2021/12/22 06:12:08;;;;;;;;;;;18.20;30.40;;;;;;5094116;28;20278;-62
2021/12/22 06:14:33;;;;;;;;;;;18.20;30.40;;;;;;5094104;28;19908;-61
2021/12/22 06:16:59;;;;;;;;;;;18.20;30.30;;;;;;5094010;28;19915;-62
2021/12/22 06:19:24;;;;;;;;;;;18.20;30.70;;;;;;5094007;28;19912;-62
2021/12/22 06:21:50;;;;;;;;;;;18.30;30.30;;;;;;5093985;28;20002;-62
2021/12/22 06:24:16;;;;;;;;;;;18.20;30.40;;;;;;5094008;28;20318;-62
2021/12/22 06:26:41;;;;;;;;;;;18.20;30.50;;;;;;5093814;28;19908;-62
2021/12/22 06:29:06;;;;;;;;;;;18.30;30.50;;;;;;5093805;28;19908;-62
2021/12/22 06:31:32;;;;;;;;;;;18.30;30.50;;;;;;5093834;28;19908;-62
2021/12/22 06:33:57;;;;;;;;;;;18.30;30.20;;;;;;5094044;28;19909;-62
2021/12/22 06:36:23;;;;;;;;;;;18.30;30.30;;;;;;5093901;28;20344;-62
2021/12/22 06:38:48;;;;;;;;;;;18.30;30.30;;;;;;5093691;28;20042;-62
2021/12/22 06:41:14;;;;;;;;;;;18.30;30.40;;;;;;5093619;28;19908;-62
2021/12/22 06:43:39;;;;;;;;;;;18.40;30.30;;;;;;5093652;28;19977;-62
2021/12/22 06:46:05;;;;;;;;;;;18.40;30.20;;;;;;5093607;28;19947;-62
2021/12/22 06:48:30;;;;;;;;;;;18.40;30.30;;;;;;5093640;28;19978;-62
2021/12/22 06:50:56;;;;;;;;;;;18.40;30.20;;;;;;5093526;28;19908;-62
2021/12/22 06:53:21;;;;;;;;;;;18.40;30.30;;;;;;5093398;28;19956;-62
2021/12/22 06:55:46;;;;;;;;;;;18.40;30.40;;;;;;5093505;28;19908;-62
2021/12/22 06:58:12;;;;;;;;;;;18.40;30.30;;;;;;5093325;28;19993;-61
2021/12/22 07:00:37;;;;;;;;;;;18.40;30.40;;;;;;5093530;28;19908;-62
2021/12/22 07:03:05;;;;;;;;;;;18.40;30.20;;;;;;5093462;28;20003;-62
2021/12/22 07:05:30;;;;;;;;;;;18.40;30.30;;;;;;5075331;28;19908;-62
2021/12/22 07:07:56;;;;;;;;;;;18.40;30.40;;;;;;5093737;28;19908;-62
2021/12/22 07:10:21;;;;;;;;;;;18.40;30.30;;;;;;5093630;28;20375;-62
2021/12/22 07:12:48;;;;;;;;;;;18.40;30.10;;;;;;5093306;28;19915;-62
2021/12/22 07:15:15;;;;;;;;;;;18.50;30.30;;;;;;5075208;28;20355;-62
2021/12/22 07:17:41;;;;;;;;;;;18.50;30.20;;;;;;5075185;28;19916;-61
2021/12/22 07:20:07;;;;;;;;;;;18.50;30.30;;;;;;5093431;28;20351;-62
2021/12/22 07:22:33;;;;;;;;;;;18.50;30.20;;;;;;5093161;28;19915;-63
2021/12/22 07:24:58;;;;;;;;;;;18.50;30.30;;;;;;5077731;28;19913;-62
2021/12/22 07:27:23;;;;;;;;;;;18.50;30.20;;;;;;5084371;28;19920;-60
2021/12/22 07:29:49;;;;;;;;;;;18.50;30.10;;;;;;5073750;28;19908;-60
2021/12/22 07:32:14;;;;;;;;;;;18.60;30.10;;;;;;5092795;28;19912;-61
2021/12/22 07:34:40;;;;;;;;;;;18.50;30.10;;;;;;5087605;28;20421;-61
2021/12/22 07:37:20;;;;;;;;;;;18.60;30.10;;;;;;5084886;28;20287;-64
2021/12/22 07:39:46;;;;;;;;;;;18.60;30.10;;;;;;5102952;28;19912;-62
2021/12/22 07:42:11;;;;;;;;;;;18.60;30.30;;;;;;5075489;28;19909;-64
2021/12/22 07:44:37;;;;;;;;;;;18.60;30.20;;;;;;5087415;28;19916;-63
2021/12/22 07:47:02;;;;;;;;;;;18.60;30.30;;;;;;5071871;28;19912;-62
2021/12/22 07:49:28;;;;;;;;;;;18.60;30.40;;;;;;5063946;28;20008;-62
2021/12/22 07:51:53;;;;;;;;;;;18.60;30.40;;;;;;5086372;28;19947;-62
2021/12/22 07:54:19;;;;;;;;;;;18.60;30.40;;;;;;5077646;28;19919;-63
2021/12/22 07:56:44;;;;;;;;;;;18.70;30.40;;;;;;5070037;28;20406;-66
2021/12/22 07:59:10;;;;;;;;;;;18.70;30.40;;;;;;5085825;28;20364;-66
2021/12/22 08:01:35;;;;;;;;;;;18.70;30.50;;;;;;5088767;28;20344;-62
2021/12/22 08:04:01;;;;;;;;;;;18.70;30.40;;;;;;5090785;28;19924;-62
2021/12/22 08:06:26;;;;;;;;;;;18.70;30.40;;;;;;5076803;28;20371;-63
2021/12/22 08:08:52;;;;;;;;;;;18.70;30.40;;;;;;5090742;28;19920;-63
2021/12/22 08:11:17;;;;;;;;;;;18.70;30.50;;;;;;5094940;28;19912;-63
2021/12/22 08:13:43;;;;;;;;;;;18.70;30.50;;;;;;5090185;28;20374;-61
2021/12/22 08:16:08;;;;;;;;;;;18.80;30.30;;;;;;5085157;28;19916;-63
2021/12/22 08:18:33;;;;;;;;;;;18.80;30.50;;;;;;5087630;28;19997;-62
2021/12/22 08:20:59;;;;;;;;;;;18.80;30.50;;;;;;5077739;28;20360;-64
2021/12/22 08:23:24;;;;;;;;;;;18.80;30.20;;;;;;5074343;28;19916;-63
2021/12/22 08:25:50;;;;;;;;;;;18.80;30.30;;;;;;5093769;28;19937;-62
2021/12/22 08:28:15;;;;;;;;;;;18.80;30.30;;;;;;5092349;28;19912;-62
2021/12/22 08:30:42;;;;;;;;;;;18.90;30.50;;;;;;5094850;28;19979;-60
2021/12/22 08:33:15;;;;;;;;;;;18.90;30.40;;;;;;5092877;28;20165;-63
2021/12/22 08:41:09;;;;;;;;;;;18.80;30.40;;;;;;5089986;28;19919;-63
2021/12/22 08:43:35;;;;;;;;;;;18.90;30.40;;;;;;5094582;28;19912;-62
2021/12/22 08:46:00;;;;;;;;;;;18.90;30.40;;;;;;5076163;28;19991;-65
2021/12/22 08:48:25;;;;;;;;;;;18.90;30.20;;;;;;5091237;28;20364;-62
2021/12/22 08:50:51;;;;;;;;;;;18.90;30.30;;;;;;5081033;28;20003;-62
2021/12/22 08:53:16;;;;;;;;;;;18.90;30.50;;;;;;5083183;28;20417;-65
2021/12/22 08:55:42;;;;;;;;;;;19.00;30.40;;;;;;5081468;28;19912;-67
2021/12/22 08:58:07;;;;;;;;;;;19.00;30.50;;;;;;5083919;28;20467;-62
2021/12/22 09:00:36;;;;;;;;;;;19.00;30.60;;;;;;5094539;28;19915;-64
2021/12/22 09:03:01;;;;;;;;;;;19.00;30.70;;;;;;5087827;28;20267;-62
2021/12/22 09:05:27;;;;;;;;;;;19.00;30.70;;;;;;5088417;28;20004;-62
2021/12/22 09:07:52;;;;;;;;;;;19.00;30.60;;;;;;5083675;28;19958;-61
2021/12/22 09:10:18;;;;;;;;;;;19.00;30.40;;;;;;5083788;28;19916;-63
2021/12/22 09:12:43;;;;;;;;;;;19.00;30.50;;;;;;5089401;28;19912;-64
2021/12/22 09:15:09;;;;;;;;;;;19.00;30.60;;;;;;5090430;28;19920;-65
2021/12/22 09:17:34;;;;;;;;;;;19.00;30.10;;;;;;5077462;28;20526;-64
2021/12/22 09:19:59;;;;;;;;;;;19.00;29.90;;;;;;5092631;28;19927;-63
2021/12/22 09:22:26;;;;;;;;;;;19.10;29.80;;;;;;5088017;28;19947;-64
2021/12/22 09:24:52;;;;;;;;;;;19.00;30.00;;;;;;5092444;28;19985;-65
2021/12/22 09:27:17;;;;;;;;;;;19.10;30.10;;;;;;5090928;28;19961;-66
2021/12/22 09:29:42;;;;;;;;;;;19.10;30.00;;;;;;5088757;28;19921;-61
2021/12/22 09:32:08;;;;;;;;;;;19.10;30.50;;;;;;5093584;28;19908;-64
2021/12/22 09:34:34;;;;;;;;;;;19.00;30.30;;;;;;5093468;28;20273;-63
2021/12/22 09:36:59;;;;;;;;;;;18.90;30.00;;;;;;5093630;28;19931;-64
2021/12/22 09:39:25;;;;;;;;;;;19.00;30.10;;;;;;5093373;28;19916;-63
2021/12/22 09:41:51;;;;;;;;;;;19.10;30.30;;;;;;5092928;28;20367;-64
2021/12/22 09:44:16;;;;;;;;;;;19.10;30.30;;;;;;5074846;28;19920;-64
2021/12/22 09:46:42;;;;;;;;;;;19.10;30.30;;;;;;5093068;28;19923;-65
2021/12/22 09:49:24;;;;;;;;;;;19.10;30.40;;;;;;5092533;28;19991;-65
2021/12/22 09:54:33;;;;;;;;;;;19.10;30.40;;;;;;5094949;28;20635;-65
2021/12/22 09:56:59;;;;;;;;;;;19.10;30.50;;;;;;5095478;28;19998;-65
2021/12/22 09:59:25;;;;;;;;;;;19.10;30.50;;;;;;5084886;28;20049;-64
2021/12/22 10:01:51;;;;;;;;;;;19.10;30.50;;;;;;5093265;28;20687;-66
2021/12/22 10:04:16;;;;;;;;;;;19.20;30.50;;;;;;5092567;28;19912;-65
2021/12/22 10:06:42;;;;;;;;;;;19.20;30.60;;;;;;5093018;28;19908;-65
2021/12/22 10:09:07;;;;;;;;;;;19.20;30.50;;;;;;5092433;28;19986;-63
2021/12/22 10:11:39;;;;;;;;;;;19.20;30.40;;;;;;5092502;28;19919;-64
2021/12/22 10:14:15;;;;;;;;;;;19.20;30.40;;;;;;5092846;28;19912;-64
2021/12/22 10:16:44;;;;;;;;;;;19.20;30.50;;;;;;5074750;28;19908;-64
2021/12/22 10:19:10;;;;;;;;;;;19.20;30.60;;;;;;5074425;28;19963;-65
2021/12/22 10:21:37;;;;;;;;;;;19.20;30.60;;;;;;5092366;28;19951;-64
2021/12/22 10:24:04;;;;;;;;;;;19.20;30.80;;;;;;5074150;28;19912;-64
2021/12/22 10:26:30;;;;;;;;;;;19.20;30.50;;;;;;5092845;28;19916;-64
2021/12/22 10:29:04;;;;;;;;;;;19.20;30.80;;;;;;5091715;28;19913;-65
2021/12/22 10:31:37;;;;;;;;;;;19.20;30.60;;;;;;5092159;28;19908;-65
2021/12/22 10:34:04;;;;;;;;;;;19.30;30.60;;;;;;5074202;28;19912;-64
2021/12/22 10:36:40;;;;;;;;;;;19.30;30.70;;;;;;5092679;28;19931;-65
2021/12/22 10:39:05;;;;;;;;;;;19.30;30.60;;;;;;5092293;28;19965;-66
2021/12/22 10:41:31;;;;;;;;;;;19.30;30.70;;;;;;5092013;28;19915;-65
2021/12/22 10:43:57;;;;;;;;;;;19.30;30.70;;;;;;5092293;28;19912;-65
2021/12/22 10:46:25;;;;;;;;;;;19.30;30.70;;;;;;5092567;28;20360;-68
2021/12/22 10:49:20;;;;;;;;;;;19.30;30.80;;;;;;5092278;28;19942;-64
2021/12/22 10:51:59;;;;;;;;;;;19.40;30.60;;;;;;5091955;28;20386;-64
2021/12/22 10:54:33;;;;;;;;;;;19.40;30.60;;;;;;5092044;28;20133;-65
2021/12/22 10:57:00;;;;;;;;;;;19.40;30.70;;;;;;5078907;28;19921;-65
2021/12/22 10:59:26;;;;;;;;;;;19.40;30.70;;;;;;5088953;28;19969;-64
2021/12/22 11:01:57;;;;;;;;;;;19.40;30.60;;;;;;5078912;28;19965;-64
2021/12/22 11:04:28;;;;;;;;;;;19.40;30.60;;;;;;5087665;28;19912;-65
2021/12/22 11:06:56;;;;;;;;;;;19.50;30.70;;;;;;5071591;28;19912;-64
2021/12/22 11:09:22;;;;;;;;;;;19.50;30.70;;;;;;5083069;28;19923;-64
2021/12/22 11:11:57;;;;;;;;;;;19.50;30.80;;;;;;5092148;28;19908;-64
2021/12/22 11:14:27;;;;;;;;;;;19.50;30.70;;;;;;5079462;28;19966;-65
2021/12/22 11:16:57;;;;;;;;;;;19.50;30.80;;;;;;5071436;28;19943;-66
2021/12/22 11:19:24;;;;;;;;;;;19.50;30.90;;;;;;5074821;28;19921;-65
2021/12/22 11:22:03;;;;;;;;;;;19.50;30.90;;;;;;5072811;28;19916;-64
2021/12/22 11:24:29;;;;;;;;;;;19.50;30.90;;;;;;5089990;28;19916;-66
2021/12/22 11:26:55;;;;;;;;;;;19.50;30.90;;;;;;5061289;28;20618;-64
2021/12/22 11:29:21;;;;;;;;;;;19.60;30.90;;;;;;5087672;28;20087;-65
2021/12/22 11:31:47;;;;;;;;;;;19.50;30.90;;;;;;5073524;28;20272;-64
2021/12/22 11:34:13;;;;;;;;;;;19.50;30.90;;;;;;5072790;28;19913;-65
2021/12/22 11:36:40;;;;;;;;;;;19.50;30.90;;;;;;5071041;28;19912;-65
2021/12/22 11:39:05;;;;;;;;;;;19.60;30.90;;;;;;5086926;28;19920;-65
2021/12/22 11:41:31;;;;;;;;;;;19.60;30.80;;;;;;5084460;28;19995;-64
2021/12/22 11:43:57;;;;;;;;;;;19.60;30.90;;;;;;5092482;28;19916;-66
2021/12/22 11:46:28;;;;;;;;;;;19.60;30.90;;;;;;5092057;28;20418;-66
2021/12/22 11:48:54;;;;;;;;;;;19.60;30.90;;;;;;5083159;28;20288;-66
2021/12/22 11:51:22;;;;;;;;;;;19.60;31.00;;;;;;5087885;28;19963;-66
2021/12/22 11:54:18;;;;;;;;;;;19.60;31.10;;;;;;5089053;28;19969;-66
2021/12/22 11:56:45;;;;;;;;;;;19.60;31.10;;;;;;5082314;28;20405;-66
2021/12/22 11:59:24;;;;;;;;;;;19.60;31.20;;;;;;5094938;28;19931;-66
2021/12/22 12:02:08;;;;;;;;;;;19.60;31.20;;;;;;5093013;28;19918;-66
2021/12/22 12:04:34;;;;;;;;;;;19.60;31.20;;;;;;5095257;28;20006;-64
2021/12/22 12:07:00;;;;;;;;;;;19.60;31.20;;;;;;5094807;28;20118;-65
2021/12/22 12:09:29;;;;;;;;;;;19.70;31.10;;;;;;5094031;28;19965;-65
2021/12/22 12:11:56;;;;;;;;;;;19.70;31.10;;;;;;5077272;28;19966;-64
2021/12/22 12:14:37;;;;;;;;;;;19.70;31.20;;;;;;5092501;28;19916;-66
2021/12/22 12:23:16;;;;;;;;;;;19.70;31.30;;;;;;5090163;28;20000;-68
2021/12/22 12:25:42;;;;;;;;;;;19.70;31.20;;;;;;5091829;28;19919;-67
2021/12/22 12:28:17;;;;;;;;;;;19.70;31.20;;;;;;5093752;28;20287;-66
2021/12/22 12:30:44;;;;;;;;;;;19.70;31.10;;;;;;5093254;28;19919;-67
2021/12/22 12:33:19;;;;;;;;;;;19.80;31.10;;;;;;5091493;28;19912;-67
2021/12/22 12:35:49;;;;;;;;;;;19.90;31.00;;;;;;5089944;28;20394;-67
2021/12/22 12:38:16;;;;;;;;;;;19.70;30.90;;;;;;5091343;28;19956;-66
2021/12/22 12:40:57;;;;;;;;;;;19.70;31.10;;;;;;5087645;28;19995;-65
2021/12/22 12:46:37;;;;;;;;;;;19.80;31.30;;;;;;5094125;28;19912;-66
2021/12/22 12:49:03;;;;;;;;;;;19.80;31.20;;;;;;5068789;28;19912;-63
2021/12/22 12:51:33;;;;;;;;;;;19.80;31.40;;;;;;5060726;28;19919;-64
2021/12/22 12:54:03;;;;;;;;;;;19.80;31.20;;;;;;5084962;28;19912;-64
2021/12/22 12:56:49;;;;;;;;;;;19.80;31.30;;;;;;5091340;28;19938;-63
2021/12/22 12:59:20;;;;;;;;;;;19.80;31.30;;;;;;5092104;28;19924;-64
2021/12/22 13:04:23;;;;;;;;;;;19.80;31.30;;;;;;5081840;28;20379;-64
2021/12/22 13:06:51;;;;;;;;;;;19.90;31.30;;;;;;5088207;28;19913;-64
2021/12/22 13:09:21;;;;;;;;;;;19.90;31.30;;;;;;5086599;28;19951;-65
2021/12/22 13:11:55;;;;;;;;;;;19.90;31.50;;;;;;5092805;28;19956;-64
2021/12/22 13:17:19;;;;;;;;;;;19.90;31.50;;;;;;5090683;28;20404;-66
2021/12/22 13:19:49;;;;;;;;;;;19.90;31.40;;;;;;5081126;28;19916;-64
2021/12/22 13:22:28;;;;;;;;;;;19.90;31.50;;;;;;5093813;28;19916;-64
2021/12/22 13:25:14;;;;;;;;;;;19.90;31.40;;;;;;5093017;28;20423;-63
2021/12/22 13:27:41;;;;;;;;;;;19.90;31.40;;;;;;5093738;28;19934;-64
2021/12/22 13:30:15;;;;;;;;;;;20.00;31.40;;;;;;5092742;28;19912;-64
2021/12/22 13:32:58;;;;;;;;;;;20.00;31.40;;;;;;5058247;28;19908;-63
2021/12/22 13:35:35;;;;;;;;;;;19.90;31.20;;;;;;5081258;28;19923;-64
2021/12/22 13:38:02;;;;;;;;;;;19.00;32.10;;;;;;5083617;28;19927;-61
2021/12/22 13:40:46;;;;;;;;;;;19.40;32.00;;;;;;5081303;28;19955;-61
2021/12/22 13:43:19;;;;;;;;;;;19.60;31.60;;;;;;5082306;28;19913;-60
2021/12/22 13:45:44;;;;;;;;;;;19.80;31.50;;;;;;5082820;28;19912;-62
2021/12/22 13:48:14;;;;;;;;;;;19.90;31.50;;;;;;5076769;28;19912;-60
2021/12/22 13:50:41;;;;;;;;;;;20.00;31.40;;;;;;5093281;28;19912;-61
2021/12/22 13:53:06;;;;;;;;;;;20.00;31.50;;;;;;5093298;28;19914;-60
2021/12/22 13:55:32;;;;;;;;;;;20.00;31.40;;;;;;5074811;28;20003;-60
2021/12/22 13:57:57;;;;;;;;;;;19.90;31.70;;;;;;5074890;28;19930;-60
2021/12/22 14:00:23;;;;;;;;;;;19.90;31.60;;;;;;5093084;28;20267;-60
2021/12/22 14:02:48;;;;;;;;;;;19.90;31.50;;;;;;5092563;28;19909;-60
2021/12/22 14:05:15;;;;;;;;;;;19.70;31.80;;;;;;5092676;28;20010;-60
2021/12/22 14:07:40;;;;;;;;;;;19.80;31.80;;;;;;5093355;28;20287;-60
2021/12/22 14:10:11;;;;;;;;;;;19.90;31.70;;;;;;5074769;28;19918;-60
2021/12/22 14:12:38;;;;;;;;;;;19.90;31.70;;;;;;5093061;28;20010;-60
2021/12/22 14:15:03;;;;;;;;;;;19.90;31.70;;;;;;5093026;28;20252;-61
2021/12/22 14:17:35;;;;;;;;;;;19.90;31.80;;;;;;5074639;28;19970;-60
2021/12/22 14:20:03;;;;;;;;;;;19.90;31.70;;;;;;5092785;28;19919;-60
2021/12/22 14:22:32;;;;;;;;;;;20.00;31.70;;;;;;5092899;28;19931;-60
2021/12/22 14:25:05;;;;;;;;;;;19.90;31.70;;;;;;5092661;28;19912;-60
2021/12/22 14:27:35;;;;;;;;;;;19.90;31.70;;;;;;5092921;28;19923;-60
2021/12/22 14:30:03;;;;;;;;;;;19.90;31.70;;;;;;5074411;28;19950;-60
2021/12/22 14:32:33;;;;;;;;;;;20.00;31.70;;;;;;5077699;28;20345;-60
2021/12/22 14:35:07;;;;;;;;;;;20.00;31.70;;;;;;5077030;28;19912;-60
2021/12/22 14:37:33;;;;;;;;;;;19.90;31.80;;;;;;5091961;28;20004;-60
2021/12/22 14:39:59;;;;;;;;;;;19.90;31.80;;;;;;5092432;28;19917;-60
2021/12/22 14:42:29;;;;;;;;;;;19.90;31.80;;;;;;5074043;28;19962;-60
2021/12/22 14:45:13;;;;;;;;;;;19.90;31.90;;;;;;5092507;28;20287;-60
2021/12/22 14:47:39;;;;;;;;;;;19.90;31.90;;;;;;5092388;28;19951;-60
2021/12/22 14:50:14;;;;;;;;;;;19.90;31.90;;;;;;5092311;28;19965;-60
2021/12/22 14:53:00;;;;;;;;;;;19.90;32.00;;;;;;5074606;28;19908;-60
2021/12/22 14:55:40;;;;;;;;;;;19.90;32.00;;;;;;5092316;28;19912;-60
2021/12/22 14:58:06;;;;;;;;;;;19.90;32.00;;;;;;5092234;28;19927;-60
2021/12/22 15:00:32;;;;;;;;;;;19.90;32.00;;;;;;5092304;28;20282;-60